createdAt,value
2024-01-06T00:05:00.736Z,97877.44
2024-01-06T00:10:04.906Z,97882.23
2024-01-06T00:15:07.722Z,97880.92
2024-01-06T00:20:10.252Z,97877.69
2024-01-06T00:25:12.967Z,97878.14
2024-01-06T00:30:15.124Z,97880.00
2024-01-06T00:35:17.034Z,97877.64
2024-01-06T00:40:20.208Z,97867.94
2024-01-06T00:45:23.828Z,97877.27
2024-01-06T00:50:25.901Z,97888.51
2024-01-06T00:55:28.067Z,97901.40
2024-01-06T01:00:29.996Z,97902.73
2024-01-06T01:05:31.973Z,97903.98
2024-01-06T01:10:34.067Z,97907.41
2024-01-06T01:15:36.208Z,97906.57
2024-01-06T01:20:38.100Z,97906.46
2024-01-06T01:25:40.205Z,97901.16
2024-01-06T01:30:42.236Z,97905.28
2024-01-06T01:35:44.175Z,97897.02
2024-01-06T01:40:46.176Z,97900.14
2024-01-06T01:45:55.410Z,97902.91
2024-01-06T01:50:57.824Z,97905.43
2024-01-06T01:56:00.536Z,97899.63
2024-01-06T02:01:03.146Z,97893.89
2024-01-06T02:06:05.303Z,97893.79
2024-01-06T02:11:07.411Z,97899.41
2024-01-06T02:16:09.234Z,97893.24
2024-01-06T02:21:11.918Z,97893.09
2024-01-06T02:26:15.995Z,97889.61
2024-01-06T02:31:18.079Z,97883.13
2024-01-06T02:36:20.194Z,97871.94
2024-01-06T02:41:22.191Z,97872.04
2024-01-06T02:46:24.180Z,97875.64
2024-01-06T02:51:26.311Z,97883.83
2024-01-06T02:56:28.391Z,97872.89
2024-01-06T03:01:30.287Z,97867.78
2024-01-06T03:06:32.420Z,97862.42
2024-01-06T03:11:34.413Z,97862.30
2024-01-06T03:16:36.518Z,97852.96
2024-01-06T03:21:38.456Z,97847.16
2024-01-06T03:26:40.604Z,97843.57
2024-01-06T03:31:47.002Z,97838.89
2024-01-06T03:36:49.110Z,97841.34
2024-01-06T03:41:51.378Z,97837.89
2024-01-06T03:46:53.484Z,97843.69
2024-01-06T03:51:55.572Z,97847.55
2024-01-06T03:56:57.747Z,97855.98
2024-01-06T04:01:59.852Z,97863.63
2024-01-06T04:07:02.685Z,97868.39
2024-01-06T04:12:04.741Z,97869.00
2024-01-06T04:17:06.663Z,97873.33
2024-01-06T04:22:08.667Z,97877.55
2024-01-06T04:27:11.274Z,97868.52
2024-01-06T04:32:13.328Z,97870.05
2024-01-06T04:37:16.065Z,97873.77
2024-01-06T04:42:18.108Z,97877.87
2024-01-06T04:47:20.494Z,97876.39
2024-01-06T04:52:22.454Z,97867.46
2024-01-06T04:57:24.686Z,97866.20
2024-01-06T05:02:27.525Z,97866.44
2024-01-06T05:07:29.391Z,97877.48
2024-01-06T05:12:31.428Z,97876.48
2024-01-06T05:17:33.552Z,97874.38
2024-01-06T05:22:35.733Z,97875.48
2024-01-06T05:27:37.780Z,97873.39
2024-01-06T05:32:39.884Z,97871.21
2024-01-06T05:37:41.909Z,97877.45
2024-01-06T05:42:43.973Z,97877.48
2024-01-06T05:47:46.097Z,97876.85
2024-01-06T05:52:49.741Z,97877.73
2024-01-06T05:57:51.841Z,97882.70
2024-01-06T06:02:54.057Z,97880.25
2024-01-06T06:07:56.088Z,97886.04
2024-01-06T06:12:58.211Z,97884.55
2024-01-06T06:18:02.901Z,97889.28
2024-01-06T06:23:04.951Z,97899.48
2024-01-06T06:28:07.698Z,97906.08
2024-01-06T06:33:09.962Z,97903.84
2024-01-06T06:38:11.900Z,97902.05
2024-01-06T06:43:16.358Z,97906.10
2024-01-06T06:48:19.693Z,97914.88
2024-01-06T06:53:22.101Z,97924.66
2024-01-06T06:58:23.957Z,97918.73
2024-01-06T07:03:28.076Z,97922.73
2024-01-06T07:08:30.099Z,97928.99
2024-01-06T07:13:32.162Z,97937.97
2024-01-06T07:18:34.411Z,97937.49
2024-01-06T07:23:36.556Z,97936.14
2024-01-06T07:28:38.783Z,97939.83
2024-01-06T07:33:41.257Z,97945.70
2024-01-06T07:38:43.669Z,97948.75
2024-01-06T07:43:45.624Z,97945.55
2024-01-06T07:48:47.615Z,97949.23
2024-01-06T07:53:49.702Z,97957.32
2024-01-06T07:58:51.682Z,97968.13
2024-01-06T08:03:53.655Z,97972.20
2024-01-06T08:08:56.207Z,97972.41
2024-01-06T08:13:58.282Z,97973.84
2024-01-06T08:19:01.158Z,97979.20
2024-01-06T08:24:03.621Z,97983.97
2024-01-06T08:29:05.569Z,97985.24
2024-01-06T08:34:09.372Z,97989.86
2024-01-06T08:39:18.315Z,97994.40
2024-01-06T08:44:20.206Z,97997.18
2024-01-06T08:49:22.176Z,98000.46
2024-01-06T08:54:24.279Z,98000.26
2024-01-06T08:59:26.391Z,98004.44
2024-01-06T09:04:28.579Z,98010.56
2024-01-06T09:09:31.528Z,98016.63
2024-01-06T09:14:33.688Z,98015.51
2024-01-06T09:19:36.166Z,98018.05
2024-01-06T09:24:38.028Z,98023.48
2024-01-06T09:29:39.944Z,98033.82
2024-01-06T09:34:42.171Z,98030.70
2024-01-06T09:39:44.457Z,98037.48
2024-01-06T09:44:46.440Z,98037.89
2024-01-06T09:49:50.657Z,98035.92
2024-01-06T09:54:55.099Z,98031.08
2024-01-06T09:59:58.376Z,98031.92
2024-01-06T10:05:00.506Z,98033.09
2024-01-06T10:10:02.814Z,98032.44
2024-01-06T10:15:04.933Z,98032.12
2024-01-06T10:20:12.204Z,98029.17
2024-01-06T10:25:15.008Z,98031.09
2024-01-06T10:30:19.550Z,98032.36
2024-01-06T10:35:21.737Z,98023.95
2024-01-06T10:40:23.822Z,98025.81
2024-01-06T10:45:26.505Z,98024.69
2024-01-06T10:50:29.990Z,98023.41
2024-01-06T10:55:33.046Z,98020.28
2024-01-06T11:00:35.044Z,98021.20
2024-01-06T11:05:38.254Z,98016.08
2024-01-06T11:10:41.564Z,98009.86
2024-01-06T11:15:45.656Z,98014.46
2024-01-06T11:21:13.940Z,98007.39
2024-01-06T11:26:16.344Z,98004.50
2024-01-06T11:31:19.883Z,98001.07
2024-01-06T11:36:21.968Z,98000.02
2024-01-06T11:41:48.733Z,97994.62
2024-01-06T11:46:51.188Z,97996.32
2024-01-06T11:51:54.184Z,97991.98
2024-01-06T11:56:57.312Z,97986.84
2024-01-06T12:01:59.606Z,97988.30
2024-01-06T12:07:08.491Z,97994.77
2024-01-06T12:12:16.269Z,97999.67
2024-01-06T12:17:18.377Z,98000.30
2024-01-06T12:22:20.533Z,97999.09
2024-01-06T12:27:23.042Z,97998.23
2024-01-06T12:32:26.625Z,98000.22
2024-01-06T12:37:29.002Z,98006.48
2024-01-06T12:42:31.112Z,98009.64
2024-01-06T12:47:34.129Z,98004.98
2024-01-06T12:52:36.427Z,98001.55
2024-01-06T12:57:38.501Z,98010.10
2024-01-06T13:02:40.572Z,98008.77
2024-01-06T13:07:42.582Z,98013.02
2024-01-06T13:12:44.790Z,98012.28
2024-01-06T13:17:47.890Z,98018.52
2024-01-06T13:22:49.980Z,98023.80
2024-01-06T13:27:53.120Z,98035.18
2024-01-06T13:32:55.917Z,98038.55
2024-01-06T13:37:58.279Z,98036.91
2024-01-06T13:43:00.373Z,98037.84
2024-01-06T13:48:04.855Z,98033.42
2024-01-06T13:53:08.847Z,98033.63
2024-01-06T13:58:10.833Z,98047.10
2024-01-06T14:03:13.305Z,98050.18
2024-01-06T14:08:15.516Z,98058.83
2024-01-06T14:13:18.063Z,98057.11
2024-01-06T14:18:20.199Z,98060.83
2024-01-06T14:23:22.754Z,98060.69
2024-01-06T14:28:25.009Z,98075.30
2024-01-06T14:33:28.663Z,98078.63
2024-01-06T14:38:30.658Z,98077.58
2024-01-06T14:43:32.911Z,98083.12
2024-01-06T14:48:35.271Z,98083.99
2024-01-06T14:53:37.625Z,98087.40
2024-01-06T14:58:39.571Z,98092.23
2024-01-06T15:03:41.747Z,98094.86
2024-01-06T15:08:43.981Z,98102.04
2024-01-06T15:13:46.809Z,98104.27
2024-01-06T15:18:48.856Z,98103.65
2024-01-06T15:23:50.968Z,98111.86
2024-01-06T15:28:53.009Z,98121.02
2024-01-06T15:33:56.787Z,98127.21
2024-01-06T15:38:58.809Z,98134.09
2024-01-06T15:44:00.646Z,98136.97
2024-01-06T15:49:04.175Z,98130.88
2024-01-06T15:54:06.243Z,98135.79
2024-01-06T15:59:08.935Z,98139.46
2024-01-06T16:04:11.179Z,98147.00
2024-01-06T16:09:13.501Z,98145.63
2024-01-06T16:14:15.518Z,98144.80
2024-01-06T16:19:17.518Z,98145.83
2024-01-06T16:24:20.020Z,98148.48
2024-01-06T16:29:22.340Z,98151.10
2024-01-06T16:34:24.425Z,98150.30
2024-01-06T16:39:28.689Z,98155.12
2024-01-06T16:44:32.589Z,98152.92
2024-01-06T16:49:36.264Z,98158.19
2024-01-06T16:54:38.909Z,98157.45
2024-01-06T16:59:43.172Z,98163.66
2024-01-06T17:04:45.310Z,98162.55
2024-01-06T17:09:47.796Z,98170.52
2024-01-06T17:14:50.176Z,98177.65
2024-01-06T17:19:55.639Z,98177.28
2024-01-06T17:24:58.238Z,98178.96
2024-01-06T17:30:00.420Z,98176.85
2024-01-06T17:35:04.380Z,98182.38
2024-01-06T17:40:08.216Z,98187.44
2024-01-06T17:45:11.943Z,98183.66
2024-01-06T17:50:14.229Z,98183.77
2024-01-06T17:55:17.350Z,98184.70
2024-01-06T18:00:21.804Z,98186.53
2024-01-06T18:05:24.010Z,98183.97
2024-01-06T18:10:26.162Z,98187.98
2024-01-06T18:15:31.637Z,98190.30
2024-01-06T18:20:35.632Z,98195.55
2024-01-06T18:25:37.903Z,98201.00
2024-01-06T18:30:39.960Z,98206.38
2024-01-06T18:35:42.040Z,98205.09
2024-01-06T18:40:44.107Z,98209.40
2024-01-06T18:45:46.996Z,98210.98
2024-01-06T18:50:49.415Z,98212.91
2024-01-06T18:55:51.845Z,98213.44
2024-01-06T19:00:55.708Z,98214.94
2024-01-06T19:05:58.178Z,98219.38
2024-01-06T19:11:01.707Z,98223.52
2024-01-06T19:16:03.994Z,98226.67
2024-01-06T19:21:11.381Z,98224.96
2024-01-06T19:26:13.876Z,98227.87
2024-01-06T19:31:17.797Z,98228.12
2024-01-06T19:36:19.967Z,98232.36
2024-01-06T19:41:22.291Z,98230.08
2024-01-06T19:46:25.035Z,98232.16
2024-01-06T19:51:32.654Z,98234.52
2024-01-06T19:56:35.108Z,98238.02
2024-01-06T20:01:37.631Z,98240.02
2024-01-06T20:06:39.937Z,98238.72
2024-01-06T20:11:42.713Z,98236.29
2024-01-06T20:16:46.392Z,98232.42
2024-01-06T20:21:49.040Z,98235.41
2024-01-06T20:26:53.544Z,98241.16
2024-01-06T20:31:58.125Z,98240.80
2024-01-06T20:37:00.657Z,98241.18
2024-01-06T20:42:07.325Z,98242.12
2024-01-06T20:47:10.031Z,98244.24
2024-01-06T20:52:12.127Z,98245.38
2024-01-06T20:57:14.886Z,98245.83
2024-01-06T21:02:18.871Z,98252.31
2024-01-06T21:07:21.152Z,98256.14
2024-01-06T21:12:24.003Z,98252.83
2024-01-06T21:17:27.165Z,98257.52
2024-01-06T21:22:30.395Z,98259.06
2024-01-06T21:27:34.192Z,98261.80
2024-01-06T21:32:39.188Z,98260.98
2024-01-06T21:37:41.833Z,98263.19
2024-01-06T21:42:44.805Z,98266.48
2024-01-06T21:47:47.112Z,98266.39
2024-01-06T21:52:49.486Z,98273.95
2024-01-06T21:57:51.360Z,98270.30
2024-01-06T22:02:53.659Z,98271.38
2024-01-06T22:08:00.697Z,98273.59
2024-01-06T22:13:03.429Z,98276.58
2024-01-06T22:18:06.163Z,98277.57
2024-01-06T22:23:08.379Z,98280.77
2024-01-06T22:28:11.463Z,98279.33
2024-01-06T22:33:16.773Z,98281.68
2024-01-06T22:38:18.954Z,98282.01
2024-01-06T22:43:25.403Z,98286.71
2024-01-06T22:48:27.526Z,98283.74
2024-01-06T22:53:29.710Z,98289.89
2024-01-06T22:58:34.247Z,98290.48
2024-01-06T23:03:36.520Z,98292.58
2024-01-06T23:08:38.676Z,98300.60
2024-01-06T23:13:41.561Z,98299.41
2024-01-06T23:18:43.755Z,98297.30
2024-01-06T23:23:46.955Z,98301.63
2024-01-06T23:28:48.873Z,98303.26
2024-01-06T23:33:50.922Z,98305.27
2024-01-06T23:38:53.406Z,98306.30
2024-01-06T23:43:55.434Z,98309.77
2024-01-06T23:48:57.849Z,98307.66
2024-01-06T23:53:59.902Z,98311.29
2024-01-06T23:59:02.728Z,98314.41
